createdAt,value
2023-01-30T00:01:37.781Z,98416.26
2023-01-30T00:06:45.301Z,98399.05
2023-01-30T00:11:52.653Z,98383.70
2023-01-30T00:17:00.284Z,98377.47
2023-01-30T00:22:07.574Z,98362.20
2023-01-30T00:27:14.851Z,98343.98
2023-01-30T00:32:22.078Z,98336.57
2023-01-30T00:37:29.563Z,98331.01
2023-01-30T00:42:54.206Z,98328.40
2023-01-30T00:48:02.042Z,98324.05
2023-01-30T00:53:09.290Z,98315.55
2023-01-30T00:58:16.568Z,98306.58
2023-01-30T01:03:23.937Z,98297.85
2023-01-30T01:08:31.350Z,98292.69
2023-01-30T01:13:38.723Z,98275.69
2023-01-30T01:18:46.045Z,98272.05
2023-01-30T01:23:54.274Z,98259.41
2023-01-30T01:29:01.937Z,98244.67
2023-01-30T01:34:09.296Z,98243.51
2023-01-30T01:39:16.884Z,98236.83
2023-01-30T01:44:26.795Z,98231.73
2023-01-30T01:49:35.764Z,98222.27
2023-01-30T01:54:46.532Z,98200.77
2023-01-30T01:59:55.063Z,98194.04
2023-01-30T02:05:07.088Z,98172.98
2023-01-30T02:10:17.803Z,98160.66
2023-01-30T02:15:25.123Z,98149.77
2023-01-30T02:20:42.652Z,98141.28
2023-01-30T02:26:02.705Z,98127.87
2023-01-30T02:31:25.146Z,98118.48
2023-01-30T02:36:39.410Z,98117.89
2023-01-30T02:41:51.028Z,98099.07
2023-01-30T02:46:59.963Z,98085.80
2023-01-30T02:52:08.419Z,98071.96
2023-01-30T02:57:22.869Z,98071.50
2023-01-30T03:02:43.168Z,98081.98
2023-01-30T03:07:52.600Z,98077.76
2023-01-30T03:13:04.731Z,98061.77
2023-01-30T03:18:12.138Z,98053.77
2023-01-30T03:23:19.262Z,98055.93
2023-01-30T03:28:26.443Z,98056.77
2023-01-30T03:33:33.812Z,98054.36
2023-01-30T03:38:40.941Z,98047.89
2023-01-30T03:43:48.162Z,98035.86
2023-01-30T03:48:55.241Z,98022.95
2023-01-30T03:54:02.437Z,98008.44
2023-01-30T03:59:09.722Z,98001.29
2023-01-30T04:04:17.059Z,97984.81
2023-01-30T04:09:24.341Z,97971.85
2023-01-30T04:14:31.414Z,97963.39
2023-01-30T04:19:38.301Z,97955.67
2023-01-30T04:24:45.374Z,97953.15
2023-01-30T04:29:52.764Z,97945.59
2023-01-30T04:34:59.823Z,97933.02
2023-01-30T04:40:07.716Z,97930.06
2023-01-30T04:45:15.036Z,97934.05
2023-01-30T04:50:22.042Z,97936.46
2023-01-30T04:55:29.002Z,97925.80
2023-01-30T05:00:35.943Z,97918.67
2023-01-30T05:05:43.181Z,97900.82
2023-01-30T05:10:50.689Z,97896.02
2023-01-30T05:15:58.032Z,97885.41
2023-01-30T05:21:11.891Z,97898.21
2023-01-30T05:26:18.884Z,97883.27
2023-01-30T05:31:26.384Z,97876.03
2023-01-30T05:36:33.509Z,97867.77
2023-01-30T05:41:40.640Z,97877.01
2023-01-30T05:46:47.720Z,97864.27
2023-01-30T05:51:55.074Z,97841.83
2023-01-30T05:57:02.481Z,97822.39
2023-01-30T06:02:11.142Z,97811.35
2023-01-30T06:07:18.932Z,97799.72
2023-01-30T06:12:26.093Z,97808.23
2023-01-30T06:17:33.501Z,97786.56
2023-01-30T06:22:41.085Z,97777.21
2023-01-30T06:27:49.055Z,97784.67
2023-01-30T06:32:56.309Z,97777.48
2023-01-30T06:38:03.518Z,97766.61
2023-01-30T06:43:10.626Z,97766.84
2023-01-30T06:48:17.852Z,97761.41
2023-01-30T06:53:31.001Z,97744.29
2023-01-30T06:58:38.608Z,97747.84
2023-01-30T07:03:45.946Z,97753.22
2023-01-30T07:08:53.426Z,97745.56
2023-01-30T07:14:01.414Z,97739.17
2023-01-30T07:19:09.024Z,97707.84
2023-01-30T07:24:16.450Z,97708.17
2023-01-30T07:29:23.971Z,97696.22
2023-01-30T07:34:31.484Z,97688.09
2023-01-30T07:39:38.903Z,97686.14
2023-01-30T07:44:46.042Z,97692.50
2023-01-30T07:49:53.436Z,97677.30
2023-01-30T07:55:01.662Z,97677.50
2023-01-30T08:00:11.284Z,97664.42
2023-01-30T08:05:18.872Z,97684.98
2023-01-30T08:10:26.352Z,97688.92
2023-01-30T08:15:33.917Z,97680.99
2023-01-30T08:20:40.892Z,97659.63
2023-01-30T08:25:48.321Z,97654.69
2023-01-30T08:30:56.092Z,97656.52
2023-01-30T08:36:03.250Z,97648.70
2023-01-30T08:41:10.682Z,97645.08
2023-01-30T08:46:18.389Z,97642.15
2023-01-30T08:51:25.571Z,97646.80
2023-01-30T08:56:33.131Z,97637.33
2023-01-30T09:01:40.373Z,97636.76
2023-01-30T09:06:47.744Z,97638.55
2023-01-30T09:11:55.174Z,97632.04
2023-01-30T09:17:02.644Z,97625.98
2023-01-30T09:22:10.096Z,97615.96
2023-01-30T09:27:17.662Z,97602.86
2023-01-30T09:32:25.023Z,97599.42
2023-01-30T09:37:32.397Z,97592.52
2023-01-30T09:42:54.755Z,97589.02
2023-01-30T09:48:05.358Z,97569.31
2023-01-30T09:53:17.805Z,97559.60
2023-01-30T09:58:25.892Z,97542.70
2023-01-30T10:03:35.852Z,97534.37
2023-01-30T10:08:48.100Z,97540.43
2023-01-30T10:14:08.335Z,97524.36
2023-01-30T10:19:34.824Z,97522.66
2023-01-30T10:24:48.262Z,97521.96
2023-01-30T10:29:57.515Z,97509.45
2023-01-30T10:35:07.325Z,97496.55
2023-01-30T10:40:16.766Z,97481.28
2023-01-30T10:45:28.441Z,97473.88
2023-01-30T10:50:46.043Z,97469.89
2023-01-30T10:55:57.440Z,97466.38
2023-01-30T11:01:08.034Z,97461.25
2023-01-30T11:06:17.480Z,97460.24
2023-01-30T11:11:29.472Z,97450.73
2023-01-30T11:16:43.774Z,97444.05
2023-01-30T11:21:52.233Z,97433.09
2023-01-30T11:27:11.299Z,97433.16
2023-01-30T11:32:24.141Z,97420.92
2023-01-30T11:37:33.344Z,97405.35
2023-01-30T11:42:46.204Z,97387.68
2023-01-30T11:47:58.815Z,97380.79
2023-01-30T11:53:07.871Z,97372.52
2023-01-30T11:58:15.703Z,97369.25
2023-01-30T12:03:25.992Z,97360.02
2023-01-30T12:08:42.722Z,97356.32
2023-01-30T12:13:51.231Z,97353.86
2023-01-30T12:19:02.548Z,97346.20
2023-01-30T12:24:18.988Z,97347.20
2023-01-30T12:29:31.502Z,97344.35
2023-01-30T12:34:38.747Z,97340.20
2023-01-30T12:39:52.204Z,97343.37
2023-01-30T12:45:04.507Z,97331.83
2023-01-30T12:50:27.842Z,97328.75
2023-01-30T12:55:42.545Z,97324.75
2023-01-30T13:00:59.892Z,97320.73
2023-01-30T13:06:13.542Z,97316.48
2023-01-30T13:11:29.571Z,97317.52
2023-01-30T13:16:38.721Z,97317.23
2023-01-30T13:21:49.309Z,97314.42
2023-01-30T13:27:00.052Z,97305.79
2023-01-30T13:32:08.671Z,97299.32
2023-01-30T13:37:16.456Z,97294.43
2023-01-30T13:42:32.725Z,97291.54
2023-01-30T13:47:45.854Z,97288.42
2023-01-30T13:52:55.104Z,97279.44
2023-01-30T13:58:06.395Z,97279.50
2023-01-30T14:03:31.872Z,97275.69
2023-01-30T14:08:42.040Z,97262.04
2023-01-30T14:13:53.630Z,97253.53
2023-01-30T14:19:00.652Z,97251.70
2023-01-30T14:24:08.611Z,97253.23
2023-01-30T14:29:36.222Z,97251.15
2023-01-30T14:34:44.023Z,97262.23
2023-01-30T14:39:54.430Z,97264.75
2023-01-30T14:45:02.634Z,97268.41
2023-01-30T14:50:20.220Z,97267.54
2023-01-30T14:55:29.980Z,97267.61
2023-01-30T15:00:39.186Z,97271.41
2023-01-30T15:05:47.488Z,97274.58
2023-01-30T15:11:12.272Z,97280.59
2023-01-30T15:16:39.934Z,97278.02
2023-01-30T15:21:54.692Z,97284.68
2023-01-30T15:27:09.092Z,97289.67
2023-01-30T15:32:20.024Z,97296.99
2023-01-30T15:37:38.100Z,97298.20
2023-01-30T15:42:47.422Z,97310.33
2023-01-30T15:48:14.292Z,97315.00
2023-01-30T15:53:24.353Z,97317.80
2023-01-30T15:58:33.151Z,97321.65
2023-01-30T16:03:43.037Z,97326.06
2023-01-30T16:08:57.431Z,97331.84
2023-01-30T16:14:04.844Z,97337.25
2023-01-30T16:19:18.925Z,97341.98
2023-01-30T16:24:27.704Z,97346.46
2023-01-30T16:29:35.585Z,97345.60
2023-01-30T16:34:42.693Z,97354.62
2023-01-30T16:40:00.596Z,97356.40
2023-01-30T16:45:33.320Z,97360.80
2023-01-30T16:50:40.353Z,97357.61
2023-01-30T16:55:56.571Z,97360.44
2023-01-30T17:01:05.028Z,97365.70
2023-01-30T17:06:22.534Z,97364.09
2023-01-30T17:11:34.948Z,97366.36
2023-01-30T17:16:43.466Z,97366.49
2023-01-30T17:21:51.752Z,97363.17
2023-01-30T17:27:00.614Z,97372.17
2023-01-30T17:32:12.340Z,97367.32
2023-01-30T17:37:21.693Z,97379.27
2023-01-30T17:42:29.082Z,97373.02
2023-01-30T17:47:36.808Z,97370.39
2023-01-30T17:52:44.022Z,97369.61
2023-01-30T17:57:51.481Z,97364.75
2023-01-30T18:02:58.875Z,97358.35
2023-01-30T18:08:06.274Z,97346.55
2023-01-30T18:13:13.601Z,97347.95
2023-01-30T18:18:20.813Z,97343.17
2023-01-30T18:23:28.313Z,97347.83
2023-01-30T18:28:35.910Z,97348.04
2023-01-30T18:33:45.121Z,97341.09
2023-01-30T18:38:53.942Z,97346.11
2023-01-30T18:44:02.357Z,97345.80
2023-01-30T18:49:10.141Z,97340.46
2023-01-30T18:54:17.561Z,97338.38
2023-01-30T18:59:25.402Z,97336.61
2023-01-30T19:04:32.972Z,97337.08
2023-01-30T19:09:40.523Z,97327.11
2023-01-30T19:14:47.953Z,97335.28
2023-01-30T19:19:55.103Z,97333.59
2023-01-30T19:25:02.790Z,97341.59
2023-01-30T19:30:11.164Z,97345.62
2023-01-30T19:35:19.204Z,97358.87
2023-01-30T19:40:26.561Z,97359.94
2023-01-30T19:45:34.302Z,97366.66
2023-01-30T19:50:41.797Z,97363.72
2023-01-30T19:55:52.881Z,97368.36
2023-01-30T20:01:08.043Z,97376.63
2023-01-30T20:06:16.425Z,97381.80
2023-01-30T20:11:23.921Z,97384.55
2023-01-30T20:16:31.781Z,97386.93
2023-01-30T20:21:39.745Z,97385.21
2023-01-30T20:26:48.638Z,97392.79
2023-01-30T20:31:56.511Z,97384.38
2023-01-30T20:37:04.031Z,97390.52
2023-01-30T20:42:11.142Z,97392.52
2023-01-30T20:47:18.332Z,97399.61
2023-01-30T20:52:25.369Z,97405.54
2023-01-30T20:57:32.392Z,97414.80
2023-01-30T21:02:39.395Z,97411.16
2023-01-30T21:07:46.483Z,97412.55
2023-01-30T21:19:47.246Z,97431.28
2023-01-30T21:31:28.619Z,97448.15
2023-01-30T21:36:35.759Z,97445.98
2023-01-30T21:42:00.384Z,97455.26
2023-01-30T21:47:08.136Z,97467.02
2023-01-30T21:52:15.357Z,97466.92
2023-01-30T21:57:22.313Z,97479.00
2023-01-30T22:02:29.424Z,97491.20
2023-01-30T22:07:36.787Z,97503.91
2023-01-30T22:12:44.029Z,97500.34
2023-01-30T22:17:51.207Z,97500.36
2023-01-30T22:22:58.572Z,97510.52
2023-01-30T22:28:06.065Z,97512.30
2023-01-30T22:33:13.215Z,97518.32
2023-01-30T22:38:22.713Z,97520.39
2023-01-30T22:43:29.915Z,97528.66
2023-01-30T22:48:37.432Z,97532.64
2023-01-30T22:53:45.837Z,97534.67
2023-01-30T22:58:53.414Z,97542.86
2023-01-30T23:04:02.036Z,97546.92
2023-01-30T23:09:09.526Z,97546.30
2023-01-30T23:14:18.451Z,97554.25
2023-01-30T23:19:25.702Z,97562.51
2023-01-30T23:24:32.772Z,97569.80
2023-01-30T23:29:40.229Z,97566.84
2023-01-30T23:34:47.569Z,97565.77
2023-01-30T23:39:55.003Z,97559.52
2023-01-30T23:45:02.572Z,97559.39
2023-01-30T23:50:10.369Z,97561.55
2023-01-30T23:55:17.913Z,97559.86
